Terminal Aerodrome Forecast
Issued by NWS Shreveport, LA

Home | Current Version | Previous Version | Text Only | Print | Product List | Glossary On
Versions: 1 2 3 4 5 6 7 8 9 10 11 12 13 14 15 16 17
357
FTUS44 KSHV 291801 RRA
TAFGGG
TAF
KGGG 291801Z 2918/3018 23010KT P6SM VCSH BKN030 BKN120
      TEMPO 2918/2920 SCT035 BKN120
     FM292000 22009G15KT P6SM VCTS BKN045CB
     FM292200 22008KT P6SM BKN050
     FM300000 18005KT P6SM BKN060 BKN120
     FM301000 20007KT P6SM BKN015
     FM301400 21008KT P6SM BKN250=

USA.gov is the U.S. government's official web portal to all federal, state and local government web resources and services.